CXA5781 ZSAM-ZSFZ
Flight info
| Callsign | CXA5781 |
|---|---|
| Flight time | 0h 54m |
| Altitude | 15000 |
| Route | ATSAB A470 ENVEN |
| Aircraft | B738/M-SDE2E3FGHIRWXY/LB1 |
Departure
| Time | 2026-04-12 06:00 |
|---|---|
| Airport | Xiamen Gaoqi International Airport (ZSAM) |
Arrival
| Time | 2026-04-12 06:54 |
|---|---|
| Airport | Fuzhou Changle International Airport (ZSFZ) |
| Time | Latitude | Longitude | Altitude | Speed | Heading |
|---|---|---|---|---|---|
| 2026-04-12 05:36 | 24.53597 | 118.12309 | 77 ft | 0 kts | 142° |
| 2026-04-12 05:46 | 24.53599 | 118.12307 | 77 ft | 1 kts | 142° |
| 2026-04-12 05:46 | 24.53611 | 118.12297 | 77 ft | 2 kts | 142° |
| 2026-04-12 05:46 | 24.53623 | 118.12286 | 77 ft | 2 kts | 142° |
| 2026-04-12 05:46 | 24.53634 | 118.12277 | 77 ft | 1 kts | 142° |
| 2026-04-12 05:47 | 24.53644 | 118.12264 | 77 ft | 2 kts | 108° |
| 2026-04-12 05:47 | 24.53646 | 118.12253 | 77 ft | 2 kts | 89° |
| 2026-04-12 05:47 | 24.53642 | 118.12236 | 77 ft | 0 kts | 55° |
| 2026-04-12 05:47 | 24.53637 | 118.12230 | 77 ft | 0 kts | 52° |
| 2026-04-12 05:52 | 24.53648 | 118.12236 | 77 ft | 2 kts | 13° |
| 2026-04-12 05:52 | 24.53680 | 118.12240 | 77 ft | 8 kts | 0° |
| 2026-04-12 05:52 | 24.53759 | 118.12254 | 77 ft | 15 kts | 38° |
| 2026-04-12 05:52 | 24.53815 | 118.12325 | 77 ft | 21 kts | 52° |
| 2026-04-12 05:53 | 24.53971 | 118.12509 | 76 ft | 25 kts | 354° |
| 2026-04-12 05:53 | 24.54058 | 118.12560 | 76 ft | 22 kts | 53° |
| 2026-04-12 05:53 | 24.54150 | 118.12691 | 76 ft | 20 kts | 54° |
| 2026-04-12 05:53 | 24.54268 | 118.12848 | 76 ft | 19 kts | 51° |
| 2026-04-12 05:54 | 24.54350 | 118.12963 | 76 ft | 18 kts | 52° |
| 2026-04-12 05:54 | 24.54425 | 118.13071 | 76 ft | 17 kts | 52° |
| 2026-04-12 05:54 | 24.54473 | 118.13139 | 76 ft | 16 kts | 51° |
| 2026-04-12 05:54 | 24.54565 | 118.13267 | 76 ft | 15 kts | 52° |
| 2026-04-12 05:55 | 24.54628 | 118.13355 | 76 ft | 14 kts | 53° |
| 2026-04-12 05:55 | 24.54684 | 118.13438 | 76 ft | 12 kts | 51° |
| 2026-04-12 05:55 | 24.54740 | 118.13511 | 76 ft | 11 kts | 52° |
| 2026-04-12 05:55 | 24.54787 | 118.13577 | 76 ft | 10 kts | 52° |
| 2026-04-12 05:56 | 24.54816 | 118.13618 | 76 ft | 9 kts | 52° |
| 2026-04-12 05:56 | 24.54872 | 118.13697 | 76 ft | 12 kts | 52° |
| 2026-04-12 05:56 | 24.54942 | 118.13796 | 76 ft | 20 kts | 53° |
| 2026-04-12 05:56 | 24.54999 | 118.13876 | 75 ft | 19 kts | 51° |
| 2026-04-12 05:57 | 24.55109 | 118.14028 | 75 ft | 18 kts | 52° |
| 2026-04-12 05:57 | 24.55159 | 118.14101 | 75 ft | 17 kts | 52° |
| 2026-04-12 05:57 | 24.55267 | 118.14147 | 75 ft | 0 kts | 326° |
| 2026-04-12 05:58 | 24.55271 | 118.14144 | 75 ft | 3 kts | 326° |
| 2026-04-12 05:58 | 24.55302 | 118.14120 | 75 ft | 13 kts | 322° |
| 2026-04-12 05:58 | 24.55289 | 118.13988 | 75 ft | 14 kts | 231° |
| 2026-04-12 05:58 | 24.55248 | 118.13930 | 75 ft | 14 kts | 232° |
| 2026-04-12 05:59 | 24.55180 | 118.13836 | 76 ft | 20 kts | 232° |
| 2026-04-12 05:59 | 24.54822 | 118.13341 | 76 ft | 115 kts | 232° |
| 2026-04-12 05:59 | 24.54427 | 118.12781 | 78 ft | 161 kts | 229° |
| 2026-04-12 05:59 | 24.53411 | 118.11272 | 511 ft | 196 kts | 231° |
| 2026-04-12 06:00 | 24.52849 | 118.10479 | 1129 ft | 204 kts | 230° |
| 2026-04-12 06:00 | 24.51733 | 118.08963 | 2714 ft | 193 kts | 231° |
| 2026-04-12 06:00 | 24.51166 | 118.08183 | 3239 ft | 201 kts | 232° |
| 2026-04-12 06:00 | 24.50027 | 118.06597 | 4631 ft | 200 kts | 232° |
| 2026-04-12 06:01 | 24.49178 | 118.05413 | 5584 ft | 202 kts | 232° |
| 2026-04-12 06:01 | 24.48324 | 118.04224 | 6523 ft | 203 kts | 233° |
| 2026-04-12 06:01 | 24.47452 | 118.03011 | 7400 ft | 207 kts | 233° |
| 2026-04-12 06:01 | 24.46557 | 118.01765 | 8309 ft | 210 kts | 235° |
| 2026-04-12 06:02 | 24.45956 | 118.00928 | 8881 ft | 212 kts | 235° |
| 2026-04-12 06:02 | 24.45045 | 117.99659 | 9725 ft | 216 kts | 236° |
| 2026-04-12 06:02 | 24.43550 | 117.98213 | 10871 ft | 225 kts | 208° |
| 2026-04-12 06:02 | 24.42537 | 117.97896 | 11477 ft | 230 kts | 193° |
| 2026-04-12 06:03 | 24.40399 | 117.98023 | 12604 ft | 241 kts | 173° |
| 2026-04-12 06:03 | 24.38825 | 117.98786 | 13417 ft | 256 kts | 149° |
| 2026-04-12 06:03 | 24.37652 | 118.00328 | 14117 ft | 276 kts | 122° |
| 2026-04-12 06:03 | 24.37117 | 118.02396 | 14745 ft | 292 kts | 99° |
| 2026-04-12 06:04 | 24.37312 | 118.04639 | 14883 ft | 303 kts | 70° |
| 2026-04-12 06:04 | 24.38484 | 118.06547 | 14892 ft | 297 kts | 34° |
| 2026-04-12 06:04 | 24.40211 | 118.07684 | 14895 ft | 288 kts | 17° |
| 2026-04-12 06:04 | 24.42062 | 118.08575 | 14870 ft | 291 kts | 26° |
| 2026-04-12 06:05 | 24.43629 | 118.10013 | 14898 ft | 296 kts | 47° |
| 2026-04-12 06:05 | 24.44505 | 118.11205 | 14893 ft | 302 kts | 52° |
| 2026-04-12 06:05 | 24.45767 | 118.13187 | 14891 ft | 332 kts | 54° |
| 2026-04-12 06:05 | 24.47638 | 118.16110 | 14872 ft | 371 kts | 52° |
| 2026-04-12 06:06 | 24.49271 | 118.18484 | 14875 ft | 398 kts | 51° |
| 2026-04-12 06:06 | 24.51025 | 118.20944 | 14872 ft | 423 kts | 50° |
| 2026-04-12 06:06 | 24.52268 | 118.22673 | 14871 ft | 437 kts | 50° |
| 2026-04-12 06:06 | 24.54821 | 118.26226 | 14869 ft | 442 kts | 50° |
| 2026-04-12 06:07 | 24.56719 | 118.28884 | 14870 ft | 442 kts | 50° |
| 2026-04-12 06:07 | 24.57979 | 118.30656 | 14878 ft | 442 kts | 51° |
| 2026-04-12 06:07 | 24.59738 | 118.33433 | 14857 ft | 442 kts | 59° |
| 2026-04-12 06:07 | 24.60982 | 118.36533 | 14862 ft | 442 kts | 75° |
| 2026-04-12 06:08 | 24.61401 | 118.39883 | 14867 ft | 440 kts | 90° |
| 2026-04-12 06:08 | 24.61379 | 118.44347 | 14855 ft | 440 kts | 94° |
| 2026-04-12 06:08 | 24.61270 | 118.47723 | 14883 ft | 439 kts | 94° |
| 2026-04-12 06:08 | 24.61150 | 118.51054 | 14870 ft | 440 kts | 94° |
| 2026-04-12 06:09 | 24.61038 | 118.54411 | 14849 ft | 439 kts | 94° |
| 2026-04-12 06:09 | 24.60939 | 118.57794 | 14862 ft | 440 kts | 94° |
| 2026-04-12 06:09 | 24.60852 | 118.61128 | 14850 ft | 440 kts | 93° |
| 2026-04-12 06:09 | 24.60798 | 118.63392 | 14867 ft | 440 kts | 93° |
| 2026-04-12 06:10 | 24.60854 | 118.66753 | 14858 ft | 440 kts | 87° |
| 2026-04-12 06:10 | 24.61837 | 118.71105 | 14840 ft | 443 kts | 63° |
| 2026-04-12 06:10 | 24.62944 | 118.73005 | 14860 ft | 442 kts | 49° |
| 2026-04-12 06:10 | 24.65234 | 118.75223 | 14877 ft | 436 kts | 31° |
| 2026-04-12 06:11 | 24.67840 | 118.76965 | 14835 ft | 435 kts | 27° |
| 2026-04-12 06:11 | 24.71368 | 118.79131 | 14850 ft | 435 kts | 26° |
| 2026-04-12 06:11 | 24.73126 | 118.80197 | 14850 ft | 435 kts | 26° |
| 2026-04-12 06:11 | 24.76695 | 118.82388 | 14857 ft | 436 kts | 26° |
| 2026-04-12 06:12 | 24.79338 | 118.84045 | 14860 ft | 435 kts | 26° |
| 2026-04-12 06:12 | 24.81085 | 118.85153 | 14864 ft | 436 kts | 27° |
| 2026-04-12 06:12 | 24.84590 | 118.87400 | 14842 ft | 434 kts | 27° |
| 2026-04-12 06:12 | 24.87223 | 118.89100 | 14857 ft | 435 kts | 27° |
| 2026-04-12 06:13 | 24.88961 | 118.90226 | 14842 ft | 435 kts | 27° |
| 2026-04-12 06:13 | 24.92448 | 118.92487 | 14830 ft | 434 kts | 27° |
| 2026-04-12 06:13 | 24.95067 | 118.94186 | 14850 ft | 436 kts | 27° |
| 2026-04-12 06:13 | 24.97669 | 118.95875 | 14825 ft | 435 kts | 27° |
| 2026-04-12 06:14 | 24.99426 | 118.97016 | 14850 ft | 435 kts | 27° |
| 2026-04-12 06:14 | 25.02941 | 118.99298 | 14839 ft | 436 kts | 27° |
| 2026-04-12 06:14 | 25.05601 | 119.00980 | 14856 ft | 435 kts | 25° |
| 2026-04-12 06:14 | 25.08261 | 119.02564 | 14851 ft | 435 kts | 24° |
| 2026-04-12 06:15 | 25.10940 | 119.04107 | 14821 ft | 435 kts | 23° |
| 2026-04-12 06:15 | 25.13636 | 119.05643 | 14865 ft | 435 kts | 23° |
| 2026-04-12 06:15 | 25.16375 | 119.07203 | 14831 ft | 435 kts | 24° |
| 2026-04-12 06:15 | 25.19048 | 119.08737 | 14848 ft | 435 kts | 24° |
| 2026-04-12 06:16 | 25.20859 | 119.09782 | 14844 ft | 436 kts | 24° |
| 2026-04-12 06:16 | 25.24454 | 119.11866 | 14845 ft | 434 kts | 24° |
| 2026-04-12 06:16 | 25.26230 | 119.12901 | 14838 ft | 434 kts | 24° |
| 2026-04-12 06:16 | 25.29819 | 119.14995 | 14814 ft | 434 kts | 24° |
| 2026-04-12 06:17 | 25.32475 | 119.16549 | 14830 ft | 433 kts | 24° |
| 2026-04-12 06:17 | 25.35164 | 119.18122 | 14835 ft | 434 kts | 24° |
| 2026-04-12 06:17 | 25.37838 | 119.19688 | 14837 ft | 434 kts | 24° |
| 2026-04-12 06:17 | 25.40515 | 119.21255 | 14844 ft | 433 kts | 24° |
| 2026-04-12 06:18 | 25.43220 | 119.22838 | 14851 ft | 435 kts | 23° |
| 2026-04-12 06:18 | 25.45043 | 119.23807 | 14836 ft | 431 kts | 19° |
| 2026-04-12 06:18 | 25.48829 | 119.24945 | 14808 ft | 418 kts | 358° |
| 2026-04-12 06:18 | 25.51661 | 119.24630 | 14829 ft | 404 kts | 339° |
| 2026-04-12 06:19 | 25.53428 | 119.23899 | 14836 ft | 398 kts | 328° |
| 2026-04-12 06:19 | 25.55726 | 119.22264 | 14837 ft | 387 kts | 315° |
| 2026-04-12 06:19 | 25.57715 | 119.20248 | 14850 ft | 381 kts | 307° |
| 2026-04-12 06:19 | 25.59552 | 119.17020 | 14875 ft | 370 kts | 286° |
| 2026-04-12 06:20 | 25.60123 | 119.14257 | 14876 ft | 364 kts | 273° |
| 2026-04-12 06:20 | 25.60191 | 119.12402 | 14894 ft | 363 kts | 267° |
| 2026-04-12 06:20 | 25.59802 | 119.08716 | 14876 ft | 361 kts | 254° |
| 2026-04-12 06:20 | 25.59191 | 119.06964 | 14886 ft | 361 kts | 244° |
| 2026-04-12 06:21 | 25.57763 | 119.04655 | 14904 ft | 364 kts | 231° |
| 2026-04-12 06:21 | 25.55940 | 119.02699 | 14905 ft | 368 kts | 223° |
| 2026-04-12 06:21 | 25.53784 | 119.01113 | 14902 ft | 373 kts | 210° |
| 2026-04-12 06:21 | 25.50414 | 119.00076 | 14910 ft | 383 kts | 194° |
| 2026-04-12 06:22 | 25.47762 | 118.99657 | 14901 ft | 383 kts | 193° |
| 2026-04-12 06:22 | 25.45093 | 118.99229 | 14889 ft | 382 kts | 194° |
| 2026-04-12 06:22 | 25.42468 | 118.98789 | 14885 ft | 381 kts | 194° |
| 2026-04-12 06:22 | 25.39848 | 118.98338 | 14864 ft | 381 kts | 194° |
| 2026-04-12 06:23 | 25.38093 | 118.98030 | 14872 ft | 380 kts | 194° |
| 2026-04-12 06:23 | 25.35481 | 118.97407 | 14855 ft | 376 kts | 202° |
| 2026-04-12 06:23 | 25.32417 | 118.95666 | 14860 ft | 368 kts | 219° |
| 2026-04-12 06:23 | 25.31095 | 118.94459 | 14866 ft | 365 kts | 226° |
| 2026-04-12 06:24 | 25.28837 | 118.91679 | 14847 ft | 363 kts | 234° |
| 2026-04-12 06:24 | 25.27346 | 118.89435 | 14845 ft | 363 kts | 237° |
| 2026-04-12 06:24 | 25.26376 | 118.87890 | 14842 ft | 363 kts | 237° |
| 2026-04-12 06:24 | 25.24941 | 118.85585 | 14821 ft | 362 kts | 237° |
| 2026-04-12 06:25 | 25.23002 | 118.82523 | 14819 ft | 364 kts | 236° |
| 2026-04-12 06:25 | 25.22017 | 118.80998 | 14843 ft | 364 kts | 236° |
| 2026-04-12 06:25 | 25.20045 | 118.77989 | 14857 ft | 364 kts | 236° |
| 2026-04-12 06:25 | 25.18546 | 118.75722 | 14840 ft | 365 kts | 236° |
| 2026-04-12 06:26 | 25.17537 | 118.74203 | 14840 ft | 365 kts | 236° |
| 2026-04-12 06:26 | 25.16035 | 118.71923 | 14896 ft | 364 kts | 237° |
| 2026-04-12 06:26 | 25.14757 | 118.69510 | 14850 ft | 362 kts | 246° |
| 2026-04-12 06:26 | 25.13938 | 118.65922 | 14865 ft | 364 kts | 264° |
| 2026-04-12 06:27 | 25.13934 | 118.64073 | 14847 ft | 366 kts | 271° |
| 2026-04-12 06:27 | 25.14293 | 118.61251 | 14837 ft | 369 kts | 279° |
| 2026-04-12 06:27 | 25.15163 | 118.58579 | 14874 ft | 375 kts | 293° |
| 2026-04-12 06:27 | 25.17316 | 118.55495 | 14875 ft | 386 kts | 311° |
| 2026-04-12 06:28 | 25.19448 | 118.53616 | 14892 ft | 393 kts | 321° |
| 2026-04-12 06:28 | 25.21932 | 118.52242 | 14887 ft | 404 kts | 336° |
| 2026-04-12 06:28 | 25.23768 | 118.51775 | 14899 ft | 412 kts | 347° |
| 2026-04-12 06:28 | 25.27646 | 118.51952 | 14909 ft | 423 kts | 6° |
| 2026-04-12 06:29 | 25.29563 | 118.52502 | 14910 ft | 428 kts | 14° |
| 2026-04-12 06:29 | 25.32292 | 118.53966 | 14907 ft | 437 kts | 31° |
| 2026-04-12 06:29 | 25.34521 | 118.56267 | 14896 ft | 443 kts | 50° |
| 2026-04-12 06:29 | 25.36460 | 118.60289 | 14902 ft | 444 kts | 71° |
| 2026-04-12 06:30 | 25.37162 | 118.63608 | 14897 ft | 444 kts | 85° |
| 2026-04-12 06:30 | 25.37059 | 118.66983 | 14884 ft | 437 kts | 104° |
| 2026-04-12 06:30 | 25.36472 | 118.69143 | 14880 ft | 433 kts | 116° |
| 2026-04-12 06:30 | 25.34688 | 118.73087 | 14876 ft | 428 kts | 126° |
| 2026-04-12 06:31 | 25.33581 | 118.74899 | 14877 ft | 425 kts | 131° |
| 2026-04-12 06:31 | 25.31305 | 118.78493 | 14851 ft | 431 kts | 122° |
| 2026-04-12 06:31 | 25.30586 | 118.80577 | 14839 ft | 449 kts | 107° |
| 2026-04-12 06:31 | 25.30484 | 118.85239 | 14526 ft | 457 kts | 80° |
| 2026-04-12 06:32 | 25.31546 | 118.88508 | 14115 ft | 449 kts | 62° |
| 2026-04-12 06:32 | 25.33224 | 118.91357 | 13653 ft | 442 kts | 51° |
| 2026-04-12 06:32 | 25.35231 | 118.93943 | 13034 ft | 438 kts | 45° |
| 2026-04-12 06:32 | 25.37360 | 118.96316 | 12356 ft | 437 kts | 41° |
| 2026-04-12 06:33 | 25.38830 | 118.97876 | 11890 ft | 438 kts | 41° |
| 2026-04-12 06:33 | 25.41767 | 119.00986 | 11089 ft | 433 kts | 41° |
| 2026-04-12 06:33 | 25.43902 | 119.03311 | 10800 ft | 421 kts | 42° |
| 2026-04-12 06:33 | 25.45923 | 119.05577 | 10655 ft | 406 kts | 43° |
| 2026-04-12 06:34 | 25.47871 | 119.07809 | 10479 ft | 393 kts | 43° |
| 2026-04-12 06:34 | 25.49709 | 119.09944 | 10308 ft | 381 kts | 43° |
| 2026-04-12 06:34 | 25.50932 | 119.11373 | 10181 ft | 374 kts | 43° |
| 2026-04-12 06:34 | 25.53269 | 119.14114 | 9879 ft | 363 kts | 43° |
| 2026-04-12 06:35 | 25.56744 | 119.18185 | 8977 ft | 362 kts | 43° |
| 2026-04-12 06:35 | 25.58454 | 119.20187 | 8553 ft | 361 kts | 44° |
| 2026-04-12 06:35 | 25.60171 | 119.22200 | 8121 ft | 359 kts | 44° |
| 2026-04-12 06:36 | 25.61902 | 119.24231 | 7868 ft | 351 kts | 44° |
| 2026-04-12 06:36 | 25.63541 | 119.26159 | 7791 ft | 338 kts | 44° |
| 2026-04-12 06:36 | 25.64621 | 119.27432 | 7622 ft | 334 kts | 44° |
| 2026-04-12 06:36 | 25.66211 | 119.29305 | 7278 ft | 333 kts | 44° |
| 2026-04-12 06:37 | 25.68328 | 119.31795 | 6717 ft | 333 kts | 45° |
| 2026-04-12 06:37 | 25.69906 | 119.33652 | 6408 ft | 323 kts | 45° |
| 2026-04-12 06:37 | 25.71404 | 119.35420 | 6324 ft | 305 kts | 45° |
| 2026-04-12 06:37 | 25.72763 | 119.37147 | 6278 ft | 290 kts | 52° |
| 2026-04-12 06:38 | 25.73733 | 119.39076 | 6143 ft | 280 kts | 74° |
| 2026-04-12 06:38 | 25.73928 | 119.40480 | 5944 ft | 277 kts | 92° |
| 2026-04-12 06:38 | 25.73739 | 119.42578 | 5639 ft | 273 kts | 102° |
| 2026-04-12 06:38 | 25.73327 | 119.45327 | 5252 ft | 270 kts | 102° |
| 2026-04-12 06:39 | 25.73054 | 119.47384 | 5032 ft | 266 kts | 101° |
| 2026-04-12 06:39 | 25.72894 | 119.48740 | 4908 ft | 262 kts | 100° |
| 2026-04-12 06:39 | 25.72675 | 119.50733 | 4714 ft | 257 kts | 99° |
| 2026-04-12 06:39 | 25.72696 | 119.53382 | 4382 ft | 259 kts | 77° |
| 2026-04-12 06:40 | 25.73169 | 119.54583 | 4314 ft | 253 kts | 53° |
| 2026-04-12 06:40 | 25.74943 | 119.56046 | 4297 ft | 229 kts | 13° |
| 2026-04-12 06:40 | 25.76453 | 119.56299 | 4291 ft | 209 kts | 357° |
| 2026-04-12 06:40 | 25.77891 | 119.56453 | 4287 ft | 203 kts | 4° |
| 2026-04-12 06:41 | 25.78821 | 119.56675 | 4286 ft | 207 kts | 10° |
| 2026-04-12 06:41 | 25.80208 | 119.57140 | 4285 ft | 206 kts | 13° |
| 2026-04-12 06:41 | 25.82023 | 119.57796 | 4281 ft | 206 kts | 12° |
| 2026-04-12 06:41 | 25.83405 | 119.58277 | 4278 ft | 205 kts | 12° |
| 2026-04-12 06:42 | 25.84789 | 119.58755 | 4277 ft | 206 kts | 12° |
| 2026-04-12 06:42 | 25.86148 | 119.59229 | 4275 ft | 204 kts | 12° |
| 2026-04-12 06:42 | 25.87517 | 119.59705 | 4276 ft | 206 kts | 12° |
| 2026-04-12 06:42 | 25.88897 | 119.60187 | 4278 ft | 206 kts | 12° |
| 2026-04-12 06:43 | 25.90259 | 119.60661 | 4280 ft | 206 kts | 12° |
| 2026-04-12 06:43 | 25.91652 | 119.61146 | 4277 ft | 206 kts | 12° |
| 2026-04-12 06:43 | 25.92554 | 119.61462 | 4279 ft | 205 kts | 12° |
| 2026-04-12 06:43 | 25.94379 | 119.62101 | 4280 ft | 207 kts | 12° |
| 2026-04-12 06:44 | 25.95772 | 119.62587 | 4279 ft | 206 kts | 12° |
| 2026-04-12 06:44 | 25.97146 | 119.63065 | 4275 ft | 205 kts | 12° |
| 2026-04-12 06:44 | 25.98061 | 119.63382 | 4277 ft | 206 kts | 12° |
| 2026-04-12 06:44 | 25.99875 | 119.64020 | 4274 ft | 205 kts | 12° |
| 2026-04-12 06:45 | 26.01267 | 119.64505 | 4274 ft | 207 kts | 12° |
| 2026-04-12 06:45 | 26.02196 | 119.64831 | 4274 ft | 207 kts | 12° |
| 2026-04-12 06:45 | 26.04025 | 119.65471 | 4273 ft | 205 kts | 13° |
| 2026-04-12 06:45 | 26.05385 | 119.65945 | 4274 ft | 206 kts | 12° |
| 2026-04-12 06:46 | 26.06309 | 119.66267 | 4272 ft | 206 kts | 13° |
| 2026-04-12 06:46 | 26.08140 | 119.66913 | 4268 ft | 204 kts | 13° |
| 2026-04-12 06:46 | 26.09508 | 119.67391 | 4283 ft | 206 kts | 12° |
| 2026-04-12 06:46 | 26.10430 | 119.67711 | 4281 ft | 208 kts | 13° |
| 2026-04-12 06:47 | 26.12254 | 119.68366 | 4244 ft | 208 kts | 17° |
| 2026-04-12 06:47 | 26.13138 | 119.68851 | 4089 ft | 213 kts | 34° |
| 2026-04-12 06:47 | 26.14037 | 119.70138 | 3875 ft | 213 kts | 74° |
| 2026-04-12 06:47 | 26.14148 | 119.72290 | 3597 ft | 207 kts | 97° |
| 2026-04-12 06:48 | 26.14080 | 119.73363 | 3451 ft | 206 kts | 100° |
| 2026-04-12 06:48 | 26.13417 | 119.75257 | 3184 ft | 191 kts | 145° |
| 2026-04-12 06:48 | 26.12705 | 119.75780 | 3116 ft | 180 kts | 165° |
| 2026-04-12 06:48 | 26.11523 | 119.76132 | 2991 ft | 174 kts | 179° |
| 2026-04-12 06:49 | 26.09985 | 119.75900 | 2814 ft | 163 kts | 216° |
| 2026-04-12 06:49 | 26.09173 | 119.75043 | 2712 ft | 161 kts | 225° |
| 2026-04-12 06:49 | 26.08567 | 119.74542 | 2628 ft | 164 kts | 210° |
| 2026-04-12 06:49 | 26.07500 | 119.74078 | 2471 ft | 160 kts | 206° |
| 2026-04-12 06:50 | 26.06488 | 119.73571 | 2330 ft | 156 kts | 210° |
| 2026-04-12 06:50 | 26.05284 | 119.72927 | 2174 ft | 130 kts | 211° |
| 2026-04-12 06:50 | 26.04505 | 119.72504 | 2099 ft | 121 kts | 211° |
| 2026-04-12 06:50 | 26.03741 | 119.72083 | 1930 ft | 121 kts | 211° |
| 2026-04-12 06:51 | 26.03006 | 119.71674 | 1786 ft | 115 kts | 211° |
| 2026-04-12 06:51 | 26.02538 | 119.71413 | 1690 ft | 114 kts | 211° |
| 2026-04-12 06:51 | 26.01827 | 119.71009 | 1539 ft | 112 kts | 211° |
| 2026-04-12 06:51 | 26.00872 | 119.70478 | 1326 ft | 115 kts | 210° |
| 2026-04-12 06:52 | 26.00155 | 119.70079 | 1183 ft | 115 kts | 211° |
| 2026-04-12 06:52 | 25.99441 | 119.69669 | 1034 ft | 117 kts | 209° |
| 2026-04-12 06:52 | 25.98720 | 119.69270 | 866 ft | 115 kts | 209° |
| 2026-04-12 06:52 | 25.98229 | 119.68998 | 792 ft | 116 kts | 209° |
| 2026-04-12 06:53 | 25.97496 | 119.68590 | 625 ft | 117 kts | 209° |
| 2026-04-12 06:53 | 25.96757 | 119.68174 | 480 ft | 119 kts | 208° |
| 2026-04-12 06:53 | 25.95774 | 119.67628 | 271 ft | 118 kts | 208° |
| 2026-04-12 06:53 | 25.95038 | 119.67207 | 114 ft | 120 kts | 208° |
| 2026-04-12 06:54 | 25.94548 | 119.66930 | 54 ft | 111 kts | 207° |
| 2026-04-12 06:54 | 25.93925 | 119.66585 | 54 ft | 82 kts | 207° |
| 2026-04-12 06:54 | 25.93511 | 119.66352 | 55 ft | 53 kts | 207° |
| 2026-04-12 06:54 | 25.93199 | 119.66175 | 55 ft | 46 kts | 206° |
| 2026-04-12 06:55 | 25.92917 | 119.66087 | 55 ft | 20 kts | 181° |
| 2026-04-12 06:55 | 25.92819 | 119.66087 | 55 ft | 20 kts | 179° |
| 2026-04-12 06:55 | 25.92785 | 119.66175 | 55 ft | 17 kts | 34° |
| 2026-04-12 06:55 | 25.92946 | 119.66267 | 55 ft | 23 kts | 27° |
| 2026-04-12 06:56 | 25.93054 | 119.66329 | 55 ft | 29 kts | 27° |
| 2026-04-12 06:56 | 25.93249 | 119.66438 | 55 ft | 29 kts | 26° |
| 2026-04-12 06:56 | 25.93430 | 119.66540 | 54 ft | 28 kts | 27° |
| 2026-04-12 06:56 | 25.93606 | 119.66637 | 54 ft | 26 kts | 27° |
| 2026-04-12 06:57 | 25.93622 | 119.66760 | 54 ft | 17 kts | 117° |
| 2026-04-12 06:57 | 25.93667 | 119.66880 | 54 ft | 14 kts | 41° |
| 2026-04-12 06:57 | 25.93661 | 119.66971 | 54 ft | 9 kts | 117° |
| 2026-04-12 06:57 | 25.93656 | 119.66981 | 54 ft | 0 kts | 117° |